sensor_id;sensor_type;location;lat;lon;timestamp;P1;durP1;ratioP1;P2;durP2;ratioP2
22314;SDS011;11325;55.686;37.566;2023-08-30T00:00:36;18.02;;;11.53;;
22314;SDS011;11325;55.686;37.566;2023-08-30T00:03:09;17.45;;;11.10;;
22314;SDS011;11325;55.686;37.566;2023-08-30T00:05:41;20.20;;;10.28;;
22314;SDS011;11325;55.686;37.566;2023-08-30T00:08:10;21.10;;;11.35;;
22314;SDS011;11325;55.686;37.566;2023-08-30T00:10:40;18.90;;;10.30;;
22314;SDS011;11325;55.686;37.566;2023-08-30T00:13:09;23.10;;;10.50;;
22314;SDS011;11325;55.686;37.566;2023-08-30T00:15:39;18.52;;;11.78;;
22314;SDS011;11325;55.686;37.566;2023-08-30T00:18:07;28.57;;;12.43;;
22314;SDS011;11325;55.686;37.566;2023-08-30T00:20:36;19.20;;;11.53;;
22314;SDS011;11325;55.686;37.566;2023-08-30T00:23:04;22.80;;;11.48;;
22314;SDS011;11325;55.686;37.566;2023-08-30T00:25:34;21.62;;;10.93;;
22314;SDS011;11325;55.686;37.566;2023-08-30T00:28:02;20.75;;;12.20;;
22314;SDS011;11325;55.686;37.566;2023-08-30T00:30:34;19.87;;;11.90;;
22314;SDS011;11325;55.686;37.566;2023-08-30T00:33:04;24.47;;;11.80;;
22314;SDS011;11325;55.686;37.566;2023-08-30T00:35:33;18.12;;;11.53;;
22314;SDS011;11325;55.686;37.566;2023-08-30T00:38:04;19.45;;;10.50;;
22314;SDS011;11325;55.686;37.566;2023-08-30T00:40:42;19.30;;;10.93;;
22314;SDS011;11325;55.686;37.566;2023-08-30T00:43:08;21.60;;;10.63;;
22314;SDS011;11325;55.686;37.566;2023-08-30T00:45:38;18.07;;;10.53;;
22314;SDS011;11325;55.686;37.566;2023-08-30T00:48:06;18.35;;;10.93;;
22314;SDS011;11325;55.686;37.566;2023-08-30T00:50:35;18.67;;;10.38;;
22314;SDS011;11325;55.686;37.566;2023-08-30T00:53:03;16.70;;;10.60;;
22314;SDS011;11325;55.686;37.566;2023-08-30T00:55:34;20.12;;;10.00;;
22314;SDS011;11325;55.686;37.566;2023-08-30T00:58:04;18.02;;;10.98;;
22314;SDS011;11325;55.686;37.566;2023-08-30T01:00:36;16.70;;;9.75;;
22314;SDS011;11325;55.686;37.566;2023-08-30T01:03:05;17.98;;;10.32;;
22314;SDS011;11325;55.686;37.566;2023-08-30T01:05:35;18.48;;;10.20;;
22314;SDS011;11325;55.686;37.566;2023-08-30T01:08:04;17.10;;;10.30;;
22314;SDS011;11325;55.686;37.566;2023-08-30T01:13:18;17.35;;;9.08;;
22314;SDS011;11325;55.686;37.566;2023-08-30T01:15:56;17.75;;;9.05;;
22314;SDS011;11325;55.686;37.566;2023-08-30T01:18:29;16.17;;;9.15;;
22314;SDS011;11325;55.686;37.566;2023-08-30T01:21:04;17.95;;;9.85;;
22314;SDS011;11325;55.686;37.566;2023-08-30T01:26:14;17.37;;;8.65;;
22314;SDS011;11325;55.686;37.566;2023-08-30T01:28:43;17.77;;;10.23;;
22314;SDS011;11325;55.686;37.566;2023-08-30T01:31:12;14.58;;;9.18;;
22314;SDS011;11325;55.686;37.566;2023-08-30T01:33:44;15.38;;;9.03;;
22314;SDS011;11325;55.686;37.566;2023-08-30T01:36:12;14.40;;;8.70;;
22314;SDS011;11325;55.686;37.566;2023-08-30T01:38:41;14.15;;;8.38;;
22314;SDS011;11325;55.686;37.566;2023-08-30T01:41:09;13.90;;;8.88;;
22314;SDS011;11325;55.686;37.566;2023-08-30T01:43:39;12.15;;;8.55;;
22314;SDS011;11325;55.686;37.566;2023-08-30T01:46:07;11.40;;;7.92;;
22314;SDS011;11325;55.686;37.566;2023-08-30T01:48:36;14.18;;;9.03;;
22314;SDS011;11325;55.686;37.566;2023-08-30T01:51:05;16.57;;;9.35;;
22314;SDS011;11325;55.686;37.566;2023-08-30T01:53:35;15.20;;;8.50;;
22314;SDS011;11325;55.686;37.566;2023-08-30T01:56:03;15.50;;;8.88;;
22314;SDS011;11325;55.686;37.566;2023-08-30T01:58:31;18.40;;;9.98;;
22314;SDS011;11325;55.686;37.566;2023-08-30T02:00:59;15.25;;;8.88;;
22314;SDS011;11325;55.686;37.566;2023-08-30T02:03:28;16.93;;;9.15;;
22314;SDS011;11325;55.686;37.566;2023-08-30T02:06:04;17.55;;;9.75;;
22314;SDS011;11325;55.686;37.566;2023-08-30T02:08:35;15.80;;;9.30;;
22314;SDS011;11325;55.686;37.566;2023-08-30T02:11:02;13.62;;;8.93;;
22314;SDS011;11325;55.686;37.566;2023-08-30T02:13:33;16.30;;;9.43;;
22314;SDS011;11325;55.686;37.566;2023-08-30T02:16:02;15.90;;;8.95;;
22314;SDS011;11325;55.686;37.566;2023-08-30T02:18:31;15.23;;;9.03;;
22314;SDS011;11325;55.686;37.566;2023-08-30T02:21:01;17.98;;;9.85;;
22314;SDS011;11325;55.686;37.566;2023-08-30T02:23:33;18.20;;;9.58;;
22314;SDS011;11325;55.686;37.566;2023-08-30T02:26:01;13.30;;;8.73;;
22314;SDS011;11325;55.686;37.566;2023-08-30T02:28:36;22.22;;;10.35;;
22314;SDS011;11325;55.686;37.566;2023-08-30T02:31:08;19.70;;;9.93;;
22314;SDS011;11325;55.686;37.566;2023-08-30T02:33:37;18.92;;;11.00;;
22314;SDS011;11325;55.686;37.566;2023-08-30T02:36:05;17.82;;;11.45;;
22314;SDS011;11325;55.686;37.566;2023-08-30T02:38:38;19.07;;;10.82;;
22314;SDS011;11325;55.686;37.566;2023-08-30T02:41:04;19.40;;;11.20;;
22314;SDS011;11325;55.686;37.566;2023-08-30T02:43:33;23.18;;;12.07;;
22314;SDS011;11325;55.686;37.566;2023-08-30T02:46:02;18.92;;;11.30;;
22314;SDS011;11325;55.686;37.566;2023-08-30T02:48:31;19.45;;;11.15;;
22314;SDS011;11325;55.686;37.566;2023-08-30T02:51:06;17.07;;;11.03;;
22314;SDS011;11325;55.686;37.566;2023-08-30T02:53:32;17.07;;;11.03;;
22314;SDS011;11325;55.686;37.566;2023-08-30T02:56:00;17.50;;;10.72;;
22314;SDS011;11325;55.686;37.566;2023-08-30T02:58:34;21.73;;;11.50;;
22314;SDS011;11325;55.686;37.566;2023-08-30T03:01:02;15.88;;;10.43;;
22314;SDS011;11325;55.686;37.566;2023-08-30T03:03:30;16.95;;;10.98;;
22314;SDS011;11325;55.686;37.566;2023-08-30T03:06:05;19.95;;;11.28;;
22314;SDS011;11325;55.686;37.566;2023-08-30T03:08:36;17.45;;;10.55;;
22314;SDS011;11325;55.686;37.566;2023-08-30T03:11:10;17.40;;;10.32;;
22314;SDS011;11325;55.686;37.566;2023-08-30T03:13:36;16.52;;;9.98;;
22314;SDS011;11325;55.686;37.566;2023-08-30T03:16:12;15.43;;;9.83;;
22314;SDS011;11325;55.686;37.566;2023-08-30T03:18:41;17.23;;;9.58;;
22314;SDS011;11325;55.686;37.566;2023-08-30T03:21:09;15.08;;;9.55;;
22314;SDS011;11325;55.686;37.566;2023-08-30T03:23:38;14.15;;;9.05;;
22314;SDS011;11325;55.686;37.566;2023-08-30T03:26:08;14.78;;;8.90;;
22314;SDS011;11325;55.686;37.566;2023-08-30T03:28:37;15.18;;;9.60;;
22314;SDS011;11325;55.686;37.566;2023-08-30T03:31:12;14.60;;;8.85;;
22314;SDS011;11325;55.686;37.566;2023-08-30T03:33:42;18.92;;;10.00;;
22314;SDS011;11325;55.686;37.566;2023-08-30T03:36:11;15.38;;;10.05;;
22314;SDS011;11325;55.686;37.566;2023-08-30T03:38:40;14.35;;;9.45;;
22314;SDS011;11325;55.686;37.566;2023-08-30T03:41:09;18.15;;;10.23;;
22314;SDS011;11325;55.686;37.566;2023-08-30T03:43:39;14.35;;;9.28;;
22314;SDS011;11325;55.686;37.566;2023-08-30T03:46:10;18.20;;;9.18;;
22314;SDS011;11325;55.686;37.566;2023-08-30T03:48:39;21.07;;;10.78;;
22314;SDS011;11325;55.686;37.566;2023-08-30T03:51:08;16.45;;;10.50;;
22314;SDS011;11325;55.686;37.566;2023-08-30T03:53:37;16.77;;;10.48;;
22314;SDS011;11325;55.686;37.566;2023-08-30T03:56:05;15.53;;;9.73;;
22314;SDS011;11325;55.686;37.566;2023-08-30T03:58:33;14.58;;;9.48;;
22314;SDS011;11325;55.686;37.566;2023-08-30T04:01:03;19.07;;;10.60;;
22314;SDS011;11325;55.686;37.566;2023-08-30T04:03:33;18.02;;;9.20;;
22314;SDS011;11325;55.686;37.566;2023-08-30T04:06:00;17.02;;;10.23;;
22314;SDS011;11325;55.686;37.566;2023-08-30T04:08:30;17.65;;;10.53;;
22314;SDS011;11325;55.686;37.566;2023-08-30T04:11:04;19.62;;;9.88;;
22314;SDS011;11325;55.686;37.566;2023-08-30T04:13:35;14.63;;;9.10;;
22314;SDS011;11325;55.686;37.566;2023-08-30T04:16:05;16.97;;;9.33;;
22314;SDS011;11325;55.686;37.566;2023-08-30T04:18:33;14.28;;;9.20;;
22314;SDS011;11325;55.686;37.566;2023-08-30T04:21:03;24.20;;;8.43;;
22314;SDS011;11325;55.686;37.566;2023-08-30T04:23:33;16.02;;;8.23;;
22314;SDS011;11325;55.686;37.566;2023-08-30T04:26:02;10.40;;;7.08;;
22314;SDS011;11325;55.686;37.566;2023-08-30T04:28:30;10.68;;;6.03;;
22314;SDS011;11325;55.686;37.566;2023-08-30T04:30:58;10.72;;;6.37;;
22314;SDS011;11325;55.686;37.566;2023-08-30T04:33:26;9.35;;;5.75;;
22314;SDS011;11325;55.686;37.566;2023-08-30T04:35:57;7.55;;;5.65;;
22314;SDS011;11325;55.686;37.566;2023-08-30T04:38:26;10.53;;;5.65;;
22314;SDS011;11325;55.686;37.566;2023-08-30T04:40:57;8.25;;;5.10;;
22314;SDS011;11325;55.686;37.566;2023-08-30T04:43:27;8.18;;;5.30;;
22314;SDS011;11325;55.686;37.566;2023-08-30T04:45:56;7.58;;;4.83;;
22314;SDS011;11325;55.686;37.566;2023-08-30T04:48:25;7.92;;;5.12;;
22314;SDS011;11325;55.686;37.566;2023-08-30T04:50:59;8.90;;;5.33;;
22314;SDS011;11325;55.686;37.566;2023-08-30T04:53:31;8.75;;;4.92;;
22314;SDS011;11325;55.686;37.566;2023-08-30T04:56:00;9.70;;;5.37;;
22314;SDS011;11325;55.686;37.566;2023-08-30T04:58:28;8.25;;;5.62;;
22314;SDS011;11325;55.686;37.566;2023-08-30T05:00:57;10.38;;;5.10;;
22314;SDS011;11325;55.686;37.566;2023-08-30T05:03:26;10.45;;;6.30;;
22314;SDS011;11325;55.686;37.566;2023-08-30T05:05:54;9.03;;;5.90;;
22314;SDS011;11325;55.686;37.566;2023-08-30T05:08:23;7.22;;;5.53;;
22314;SDS011;11325;55.686;37.566;2023-08-30T05:10:53;7.12;;;5.45;;
22314;SDS011;11325;55.686;37.566;2023-08-30T05:13:20;7.62;;;5.58;;
22314;SDS011;11325;55.686;37.566;2023-08-30T05:15:48;9.00;;;5.95;;
22314;SDS011;11325;55.686;37.566;2023-08-30T05:18:18;12.98;;;5.62;;
22314;SDS011;11325;55.686;37.566;2023-08-30T05:20:46;7.35;;;5.30;;
22314;SDS011;11325;55.686;37.566;2023-08-30T05:23:14;8.10;;;5.45;;
22314;SDS011;11325;55.686;37.566;2023-08-30T05:25:44;9.35;;;5.67;;
22314;SDS011;11325;55.686;37.566;2023-08-30T05:28:21;9.40;;;5.25;;
22314;SDS011;11325;55.686;37.566;2023-08-30T05:30:44;7.45;;;5.20;;
22314;SDS011;11325;55.686;37.566;2023-08-30T05:33:19;9.78;;;5.58;;
22314;SDS011;11325;55.686;37.566;2023-08-30T05:35:49;8.33;;;5.70;;
22314;SDS011;11325;55.686;37.566;2023-08-30T05:38:22;12.70;;;6.05;;
22314;SDS011;11325;55.686;37.566;2023-08-30T05:40:50;8.65;;;5.53;;
22314;SDS011;11325;55.686;37.566;2023-08-30T05:43:21;11.57;;;5.75;;
22314;SDS011;11325;55.686;37.566;2023-08-30T05:45:49;10.48;;;5.78;;
22314;SDS011;11325;55.686;37.566;2023-08-30T05:48:17;8.25;;;5.53;;
22314;SDS011;11325;55.686;37.566;2023-08-30T05:50:45;11.20;;;5.25;;
22314;SDS011;11325;55.686;37.566;2023-08-30T05:53:13;11.68;;;6.17;;
22314;SDS011;11325;55.686;37.566;2023-08-30T05:55:41;11.30;;;5.92;;
22314;SDS011;11325;55.686;37.566;2023-08-30T05:58:17;10.20;;;5.50;;
22314;SDS011;11325;55.686;37.566;2023-08-30T06:00:45;9.58;;;5.80;;
22314;SDS011;11325;55.686;37.566;2023-08-30T06:03:13;13.60;;;5.70;;
22314;SDS011;11325;55.686;37.566;2023-08-30T06:05:43;8.28;;;4.97;;
22314;SDS011;11325;55.686;37.566;2023-08-30T06:08:12;8.23;;;5.75;;
22314;SDS011;11325;55.686;37.566;2023-08-30T06:10:40;9.95;;;5.60;;
22314;SDS011;11325;55.686;37.566;2023-08-30T06:13:10;9.28;;;5.45;;
22314;SDS011;11325;55.686;37.566;2023-08-30T06:15:45;8.75;;;5.20;;
22314;SDS011;11325;55.686;37.566;2023-08-30T06:18:16;9.68;;;5.03;;
22314;SDS011;11325;55.686;37.566;2023-08-30T06:20:47;10.15;;;5.33;;
22314;SDS011;11325;55.686;37.566;2023-08-30T06:23:18;14.28;;;5.08;;
22314;SDS011;11325;55.686;37.566;2023-08-30T06:25:59;10.38;;;5.12;;
22314;SDS011;11325;55.686;37.566;2023-08-30T06:28:22;7.17;;;5.35;;
22314;SDS011;11325;55.686;37.566;2023-08-30T06:30:53;7.97;;;5.10;;
22314;SDS011;11325;55.686;37.566;2023-08-30T06:33:23;9.95;;;4.12;;
22314;SDS011;11325;55.686;37.566;2023-08-30T06:35:52;8.55;;;5.05;;
22314;SDS011;11325;55.686;37.566;2023-08-30T06:38:21;7.90;;;4.60;;
22314;SDS011;11325;55.686;37.566;2023-08-30T06:40:51;8.75;;;5.03;;
22314;SDS011;11325;55.686;37.566;2023-08-30T06:43:20;8.88;;;5.30;;
22314;SDS011;11325;55.686;37.566;2023-08-30T06:45:48;7.83;;;4.87;;
22314;SDS011;11325;55.686;37.566;2023-08-30T06:48:18;8.33;;;5.17;;
22314;SDS011;11325;55.686;37.566;2023-08-30T06:50:46;8.40;;;4.58;;
22314;SDS011;11325;55.686;37.566;2023-08-30T06:53:14;11.22;;;4.92;;
22314;SDS011;11325;55.686;37.566;2023-08-30T06:55:43;5.45;;;4.10;;
22314;SDS011;11325;55.686;37.566;2023-08-30T06:58:11;4.83;;;4.00;;
22314;SDS011;11325;55.686;37.566;2023-08-30T07:00:39;9.33;;;4.75;;
22314;SDS011;11325;55.686;37.566;2023-08-30T07:03:07;9.35;;;4.87;;
22314;SDS011;11325;55.686;37.566;2023-08-30T07:05:36;6.92;;;4.10;;
22314;SDS011;11325;55.686;37.566;2023-08-30T07:08:05;8.58;;;4.50;;
22314;SDS011;11325;55.686;37.566;2023-08-30T07:10:33;9.13;;;4.53;;
22314;SDS011;11325;55.686;37.566;2023-08-30T07:13:01;6.62;;;4.25;;
22314;SDS011;11325;55.686;37.566;2023-08-30T07:15:31;10.32;;;4.30;;
22314;SDS011;11325;55.686;37.566;2023-08-30T07:18:02;7.40;;;4.05;;
22314;SDS011;11325;55.686;37.566;2023-08-30T07:20:33;6.17;;;4.12;;
22314;SDS011;11325;55.686;37.566;2023-08-30T07:23:02;7.03;;;4.40;;
22314;SDS011;11325;55.686;37.566;2023-08-30T07:25:30;8.73;;;4.78;;
22314;SDS011;11325;55.686;37.566;2023-08-30T07:28:00;8.53;;;4.25;;
22314;SDS011;11325;55.686;37.566;2023-08-30T07:30:28;7.67;;;4.40;;
22314;SDS011;11325;55.686;37.566;2023-08-30T07:32:59;9.05;;;4.20;;
22314;SDS011;11325;55.686;37.566;2023-08-30T07:35:28;9.83;;;4.85;;
22314;SDS011;11325;55.686;37.566;2023-08-30T07:37:56;5.75;;;4.03;;
22314;SDS011;11325;55.686;37.566;2023-08-30T07:40:24;8.25;;;4.95;;
22314;SDS011;11325;55.686;37.566;2023-08-30T07:42:57;9.73;;;4.33;;
22314;SDS011;11325;55.686;37.566;2023-08-30T07:45:25;12.20;;;4.78;;
22314;SDS011;11325;55.686;37.566;2023-08-30T07:47:54;6.03;;;4.30;;
22314;SDS011;11325;55.686;37.566;2023-08-30T07:50:22;6.15;;;4.70;;
22314;SDS011;11325;55.686;37.566;2023-08-30T07:52:54;9.70;;;4.75;;
22314;SDS011;11325;55.686;37.566;2023-08-30T07:55:24;10.05;;;4.75;;
22314;SDS011;11325;55.686;37.566;2023-08-30T07:57:54;6.10;;;4.53;;
22314;SDS011;11325;55.686;37.566;2023-08-30T08:00:24;7.12;;;4.78;;
22314;SDS011;11325;55.686;37.566;2023-08-30T08:02:54;6.20;;;4.22;;
22314;SDS011;11325;55.686;37.566;2023-08-30T08:05:27;6.50;;;4.28;;
22314;SDS011;11325;55.686;37.566;2023-08-30T08:07:54;10.35;;;4.78;;
22314;SDS011;11325;55.686;37.566;2023-08-30T08:10:25;10.00;;;4.37;;
22314;SDS011;11325;55.686;37.566;2023-08-30T08:12:55;6.05;;;4.33;;
22314;SDS011;11325;55.686;37.566;2023-08-30T08:15:25;11.40;;;4.72;;
22314;SDS011;11325;55.686;37.566;2023-08-30T08:17:55;7.03;;;4.55;;
22314;SDS011;11325;55.686;37.566;2023-08-30T08:20:27;7.33;;;4.75;;
22314;SDS011;11325;55.686;37.566;2023-08-30T08:22:54;6.28;;;4.47;;
22314;SDS011;11325;55.686;37.566;2023-08-30T08:25:22;7.87;;;4.60;;
22314;SDS011;11325;55.686;37.566;2023-08-30T08:27:52;10.88;;;7.30;;
22314;SDS011;11325;55.686;37.566;2023-08-30T08:30:20;10.28;;;4.85;;
22314;SDS011;11325;55.686;37.566;2023-08-30T08:32:49;9.40;;;4.58;;
22314;SDS011;11325;55.686;37.566;2023-08-30T08:35:17;7.75;;;4.60;;
22314;SDS011;11325;55.686;37.566;2023-08-30T08:37:45;6.03;;;3.75;;
22314;SDS011;11325;55.686;37.566;2023-08-30T08:40:13;10.53;;;4.33;;
22314;SDS011;11325;55.686;37.566;2023-08-30T08:42:41;10.05;;;4.20;;
22314;SDS011;11325;55.686;37.566;2023-08-30T08:45:10;11.35;;;5.10;;
22314;SDS011;11325;55.686;37.566;2023-08-30T08:47:41;7.53;;;4.58;;
22314;SDS011;11325;55.686;37.566;2023-08-30T08:50:09;7.53;;;4.90;;
22314;SDS011;11325;55.686;37.566;2023-08-30T08:52:38;9.65;;;4.83;;
22314;SDS011;11325;55.686;37.566;2023-08-30T08:55:06;7.90;;;4.30;;
22314;SDS011;11325;55.686;37.566;2023-08-30T08:57:34;5.87;;;4.28;;
22314;SDS011;11325;55.686;37.566;2023-08-30T09:00:02;9.75;;;4.90;;
22314;SDS011;11325;55.686;37.566;2023-08-30T09:02:31;7.05;;;4.50;;
22314;SDS011;11325;55.686;37.566;2023-08-30T09:04:59;8.40;;;5.05;;
22314;SDS011;11325;55.686;37.566;2023-08-30T09:07:30;7.42;;;4.72;;
22314;SDS011;11325;55.686;37.566;2023-08-30T09:09:59;8.55;;;5.15;;
22314;SDS011;11325;55.686;37.566;2023-08-30T09:12:27;10.25;;;5.00;;
22314;SDS011;11325;55.686;37.566;2023-08-30T09:14:55;7.62;;;5.35;;
22314;SDS011;11325;55.686;37.566;2023-08-30T09:17:34;7.70;;;5.00;;
22314;SDS011;11325;55.686;37.566;2023-08-30T09:19:53;8.18;;;4.83;;
22314;SDS011;11325;55.686;37.566;2023-08-30T09:22:21;8.68;;;5.03;;
22314;SDS011;11325;55.686;37.566;2023-08-30T09:24:49;7.78;;;5.20;;
22314;SDS011;11325;55.686;37.566;2023-08-30T09:27:18;11.65;;;5.20;;
22314;SDS011;11325;55.686;37.566;2023-08-30T09:29:46;13.53;;;5.03;;
22314;SDS011;11325;55.686;37.566;2023-08-30T09:32:20;8.20;;;5.00;;
22314;SDS011;11325;55.686;37.566;2023-08-30T09:34:47;8.13;;;5.22;;
22314;SDS011;11325;55.686;37.566;2023-08-30T09:37:20;16.35;;;5.45;;
22314;SDS011;11325;55.686;37.566;2023-08-30T09:39:49;8.73;;;4.83;;
22314;SDS011;11325;55.686;37.566;2023-08-30T09:42:19;8.50;;;4.58;;
22314;SDS011;11325;55.686;37.566;2023-08-30T09:44:46;7.70;;;5.15;;
22314;SDS011;11325;55.686;37.566;2023-08-30T09:47:15;7.08;;;5.05;;
22314;SDS011;11325;55.686;37.566;2023-08-30T09:49:44;20.75;;;9.70;;
22314;SDS011;11325;55.686;37.566;2023-08-30T09:52:18;6.35;;;4.85;;
22314;SDS011;11325;55.686;37.566;2023-08-30T09:54:43;10.88;;;5.25;;
22314;SDS011;11325;55.686;37.566;2023-08-30T09:57:11;11.50;;;5.35;;
22314;SDS011;11325;55.686;37.566;2023-08-30T09:59:39;9.35;;;5.03;;
22314;SDS011;11325;55.686;37.566;2023-08-30T10:02:08;12.65;;;4.92;;
22314;SDS011;11325;55.686;37.566;2023-08-30T10:04:38;8.25;;;5.53;;
22314;SDS011;11325;55.686;37.566;2023-08-30T10:07:07;9.08;;;4.97;;
22314;SDS011;11325;55.686;37.566;2023-08-30T10:09:36;10.90;;;4.92;;
22314;SDS011;11325;55.686;37.566;2023-08-30T10:12:05;9.40;;;5.05;;
22314;SDS011;11325;55.686;37.566;2023-08-30T10:14:34;6.50;;;4.17;;
22314;SDS011;11325;55.686;37.566;2023-08-30T10:17:02;9.80;;;4.90;;
22314;SDS011;11325;55.686;37.566;2023-08-30T10:19:31;7.53;;;4.90;;
22314;SDS011;11325;55.686;37.566;2023-08-30T10:22:03;8.58;;;4.72;;
22314;SDS011;11325;55.686;37.566;2023-08-30T10:24:32;13.05;;;4.90;;
22314;SDS011;11325;55.686;37.566;2023-08-30T10:27:01;9.20;;;5.42;;
22314;SDS011;11325;55.686;37.566;2023-08-30T10:29:31;7.60;;;5.03;;
22314;SDS011;11325;55.686;37.566;2023-08-30T10:32:03;11.60;;;5.17;;
22314;SDS011;11325;55.686;37.566;2023-08-30T10:34:39;9.50;;;5.35;;
22314;SDS011;11325;55.686;37.566;2023-08-30T10:37:05;12.23;;;4.75;;
22314;SDS011;11325;55.686;37.566;2023-08-30T10:39:37;7.37;;;4.30;;
22314;SDS011;11325;55.686;37.566;2023-08-30T10:42:14;7.40;;;4.60;;
22314;SDS011;11325;55.686;37.566;2023-08-30T10:44:52;12.70;;;5.75;;
22314;SDS011;11325;55.686;37.566;2023-08-30T10:49:48;6.17;;;3.95;;
22314;SDS011;11325;55.686;37.566;2023-08-30T10:52:18;7.83;;;4.55;;
22314;SDS011;11325;55.686;37.566;2023-08-30T10:54:46;11.45;;;4.55;;
22314;SDS011;11325;55.686;37.566;2023-08-30T10:57:17;11.55;;;4.42;;
22314;SDS011;11325;55.686;37.566;2023-08-30T11:02:31;7.65;;;4.60;;
22314;SDS011;11325;55.686;37.566;2023-08-30T11:05:00;9.70;;;4.55;;
22314;SDS011;11325;55.686;37.566;2023-08-30T11:07:30;7.33;;;4.42;;
22314;SDS011;11325;55.686;37.566;2023-08-30T11:09:58;8.83;;;4.67;;
22314;SDS011;11325;55.686;37.566;2023-08-30T11:12:26;8.80;;;4.85;;
22314;SDS011;11325;55.686;37.566;2023-08-30T11:14:56;8.18;;;4.78;;
22314;SDS011;11325;55.686;37.566;2023-08-30T11:17:26;8.83;;;5.00;;
22314;SDS011;11325;55.686;37.566;2023-08-30T11:20:14;8.13;;;5.37;;
22314;SDS011;11325;55.686;37.566;2023-08-30T11:22:26;7.53;;;5.17;;
22314;SDS011;11325;55.686;37.566;2023-08-30T11:24:55;11.83;;;5.58;;
22314;SDS011;11325;55.686;37.566;2023-08-30T11:27:23;9.28;;;4.87;;
22314;SDS011;11325;55.686;37.566;2023-08-30T11:29:51;6.62;;;4.55;;
22314;SDS011;11325;55.686;37.566;2023-08-30T11:32:19;10.28;;;4.70;;
22314;SDS011;11325;55.686;37.566;2023-08-30T11:34:55;13.80;;;4.47;;
22314;SDS011;11325;55.686;37.566;2023-08-30T11:37:17;8.98;;;5.20;;
22314;SDS011;11325;55.686;37.566;2023-08-30T11:39:45;7.95;;;4.50;;
22314;SDS011;11325;55.686;37.566;2023-08-30T11:42:13;11.40;;;4.80;;
22314;SDS011;11325;55.686;37.566;2023-08-30T11:44:41;8.25;;;4.60;;
22314;SDS011;11325;55.686;37.566;2023-08-30T11:47:10;8.28;;;4.20;;
22314;SDS011;11325;55.686;37.566;2023-08-30T11:49:39;9.55;;;4.37;;
22314;SDS011;11325;55.686;37.566;2023-08-30T11:52:08;6.37;;;4.60;;
22314;SDS011;11325;55.686;37.566;2023-08-30T11:54:36;8.78;;;4.75;;
22314;SDS011;11325;55.686;37.566;2023-08-30T11:57:05;11.93;;;4.83;;
22314;SDS011;11325;55.686;37.566;2023-08-30T11:59:34;8.23;;;4.20;;
22314;SDS011;11325;55.686;37.566;2023-08-30T12:02:03;7.70;;;4.58;;
22314;SDS011;11325;55.686;37.566;2023-08-30T12:04:31;13.48;;;4.53;;
22314;SDS011;11325;55.686;37.566;2023-08-30T12:06:59;10.82;;;5.05;;
22314;SDS011;11325;55.686;37.566;2023-08-30T12:09:32;6.60;;;5.08;;
22314;SDS011;11325;55.686;37.566;2023-08-30T12:12:05;7.92;;;5.22;;
22314;SDS011;11325;55.686;37.566;2023-08-30T12:14:34;8.33;;;4.90;;
22314;SDS011;11325;55.686;37.566;2023-08-30T12:17:02;5.35;;;4.50;;
22314;SDS011;11325;55.686;37.566;2023-08-30T12:19:31;7.00;;;5.17;;
22314;SDS011;11325;55.686;37.566;2023-08-30T12:22:05;8.58;;;4.70;;
22314;SDS011;11325;55.686;37.566;2023-08-30T12:24:46;8.70;;;5.33;;
22314;SDS011;11325;55.686;37.566;2023-08-30T12:27:14;10.13;;;5.78;;
22314;SDS011;11325;55.686;37.566;2023-08-30T12:29:42;14.23;;;5.62;;
22314;SDS011;11325;55.686;37.566;2023-08-30T12:32:11;7.90;;;5.20;;
22314;SDS011;11325;55.686;37.566;2023-08-30T12:34:39;10.05;;;5.47;;
22314;SDS011;11325;55.686;37.566;2023-08-30T12:37:08;10.38;;;5.20;;
22314;SDS011;11325;55.686;37.566;2023-08-30T12:39:36;13.70;;;5.65;;
22314;SDS011;11325;55.686;37.566;2023-08-30T12:42:04;16.17;;;5.10;;
22314;SDS011;11325;55.686;37.566;2023-08-30T12:44:32;9.28;;;5.00;;
22314;SDS011;11325;55.686;37.566;2023-08-30T12:47:00;12.58;;;4.45;;
22314;SDS011;11325;55.686;37.566;2023-08-30T12:49:28;7.50;;;3.85;;
22314;SDS011;11325;55.686;37.566;2023-08-30T12:51:56;9.13;;;3.62;;
22314;SDS011;11325;55.686;37.566;2023-08-30T12:54:24;6.87;;;4.00;;
22314;SDS011;11325;55.686;37.566;2023-08-30T12:56:52;6.22;;;3.17;;
22314;SDS011;11325;55.686;37.566;2023-08-30T12:59:20;8.40;;;4.15;;
22314;SDS011;11325;55.686;37.566;2023-08-30T13:01:48;7.62;;;3.40;;
22314;SDS011;11325;55.686;37.566;2023-08-30T13:04:18;10.18;;;3.55;;
22314;SDS011;11325;55.686;37.566;2023-08-30T13:06:46;8.80;;;4.03;;
22314;SDS011;11325;55.686;37.566;2023-08-30T13:09:14;6.15;;;3.50;;
22314;SDS011;11325;55.686;37.566;2023-08-30T13:11:42;8.38;;;3.72;;
22314;SDS011;11325;55.686;37.566;2023-08-30T13:14:10;7.95;;;3.98;;
22314;SDS011;11325;55.686;37.566;2023-08-30T13:16:38;6.85;;;4.20;;
22314;SDS011;11325;55.686;37.566;2023-08-30T13:19:06;9.48;;;4.35;;
22314;SDS011;11325;55.686;37.566;2023-08-30T13:21:34;11.25;;;4.30;;
22314;SDS011;11325;55.686;37.566;2023-08-30T13:24:02;7.47;;;4.30;;
22314;SDS011;11325;55.686;37.566;2023-08-30T13:26:31;11.63;;;4.65;;
22314;SDS011;11325;55.686;37.566;2023-08-30T13:29:00;15.45;;;5.10;;
22314;SDS011;11325;55.686;37.566;2023-08-30T13:31:29;8.45;;;4.83;;
22314;SDS011;11325;55.686;37.566;2023-08-30T13:33:57;12.40;;;4.40;;
22314;SDS011;11325;55.686;37.566;2023-08-30T13:36:26;10.60;;;4.37;;
22314;SDS011;11325;55.686;37.566;2023-08-30T13:38:54;10.75;;;4.33;;
22314;SDS011;11325;55.686;37.566;2023-08-30T13:41:22;10.55;;;4.40;;
22314;SDS011;11325;55.686;37.566;2023-08-30T13:43:50;6.97;;;4.30;;
22314;SDS011;11325;55.686;37.566;2023-08-30T13:46:18;6.40;;;4.00;;
22314;SDS011;11325;55.686;37.566;2023-08-30T13:48:46;8.15;;;4.10;;
22314;SDS011;11325;55.686;37.566;2023-08-30T13:51:20;13.28;;;5.22;;
22314;SDS011;11325;55.686;37.566;2023-08-30T13:53:44;8.45;;;3.98;;
22314;SDS011;11325;55.686;37.566;2023-08-30T13:56:12;9.50;;;4.25;;
22314;SDS011;11325;55.686;37.566;2023-08-30T13:58:40;11.03;;;4.30;;
22314;SDS011;11325;55.686;37.566;2023-08-30T14:01:08;7.92;;;3.92;;
22314;SDS011;11325;55.686;37.566;2023-08-30T14:03:36;8.55;;;4.30;;
22314;SDS011;11325;55.686;37.566;2023-08-30T14:06:05;11.48;;;4.58;;
22314;SDS011;11325;55.686;37.566;2023-08-30T14:08:33;12.98;;;4.28;;
22314;SDS011;11325;55.686;37.566;2023-08-30T14:11:01;9.18;;;4.37;;
22314;SDS011;11325;55.686;37.566;2023-08-30T14:13:30;13.55;;;4.80;;
22314;SDS011;11325;55.686;37.566;2023-08-30T14:16:01;18.00;;;4.05;;
22314;SDS011;11325;55.686;37.566;2023-08-30T14:18:31;10.70;;;4.10;;
22314;SDS011;11325;55.686;37.566;2023-08-30T14:20:59;10.10;;;4.47;;
22314;SDS011;11325;55.686;37.566;2023-08-30T14:23:29;9.73;;;4.55;;
22314;SDS011;11325;55.686;37.566;2023-08-30T14:26:02;9.68;;;4.20;;
22314;SDS011;11325;55.686;37.566;2023-08-30T14:28:31;10.60;;;4.42;;
22314;SDS011;11325;55.686;37.566;2023-08-30T14:30:59;13.40;;;4.62;;
22314;SDS011;11325;55.686;37.566;2023-08-30T14:33:27;16.90;;;4.42;;
22314;SDS011;11325;55.686;37.566;2023-08-30T14:35:55;13.15;;;4.45;;
22314;SDS011;11325;55.686;37.566;2023-08-30T14:38:24;8.90;;;4.20;;
22314;SDS011;11325;55.686;37.566;2023-08-30T14:40:58;6.53;;;4.10;;
22314;SDS011;11325;55.686;37.566;2023-08-30T14:43:27;6.97;;;3.70;;
22314;SDS011;11325;55.686;37.566;2023-08-30T14:46:03;6.75;;;3.00;;
22314;SDS011;11325;55.686;37.566;2023-08-30T14:48:28;11.35;;;4.10;;